KEVB/EVB METAR and TAF weather

Enter ICAO airport designator
Station Type Date Time Source
KEVB METAR 2021/05/14 12:50 UTC NOAA

KEVB 141250Z 01012KT 10SM SCT018 22/18 A3011


Station Type Date Time Source
KEVB Decoded METAR 2021/05/14 12:50 UTC NOAA

New Smyrna Beach, New Smyrna Beach Municipal Airport, FL, United States (KEVB) 29-03-20N 080-56-54W
May 14, 2021 - 08:50 AM EDT / 2021.05.14 1250 UTC
Wind: from the N (010 degrees) at 14 MPH (12 KT):0
Visibility: 10 mile(s):0
Sky conditions: partly cloudy
Temperature: 71 F (22 C)
Dew Point: 64 F (18 C)
Relative Humidity: 78%
Pressure (altimeter): 30.11 in. Hg (1019 hPa)
ob: KEVB 141250Z 01012KT 10SM SCT018 22/18 A3011
cycle: 13

Station Type Date Time Source
KEVB TAF UTC NOAA

Error!

Example: see airport list